Time;durP1;ratioP1;P1;durP2;ratioP2;P2;SDS_P1;SDS_P2;PMS_P1;PMS_P2;Temp;Humidity;BMP_temperature;BMP_pressure;BME280_temperature;BME280_humidity;BME280_pressure;Samples;Min_cycle;Max_cycle;Signal;HPM_P1;HPM_P2
2023/07/27 00:00:46;;;;;;;;;;;25.20;49.70;;;;;;5045300;28;45649;-79
2023/07/27 00:03:11;;;;;;;;;;;25.20;50.20;;;;;;5046801;28;42980;-79
2023/07/27 00:05:37;;;;;;;;;;;25.20;50.10;;;;;;5032195;28;42987;-79
2023/07/27 00:08:02;;;;;;;;;;;25.20;50.20;;;;;;5046174;28;43233;-79
2023/07/27 00:10:28;;;;;;;;;;;25.10;50.20;;;;;;5045576;28;42899;-78
2023/07/27 00:12:54;;;;;;;;;;;24.90;49.90;;;;;;5044098;28;42993;-78
2023/07/27 00:15:20;;;;;;;;;;;25.00;50.60;;;;;;5042855;28;44292;-79
2023/07/27 00:17:45;;;;;;;;;;;25.00;50.70;;;;;;5045101;28;43204;-79
2023/07/27 00:20:11;;;;;;;;;;;25.00;50.60;;;;;;5045197;28;43563;-79
2023/07/27 00:22:37;;;;;;;;;;;25.00;50.50;;;;;;5045454;28;43015;-79
2023/07/27 00:25:02;;;;;;;;;;;25.00;50.10;;;;;;5046108;28;44025;-79
2023/07/27 00:27:28;;;;;;;;;;;24.90;50.10;;;;;;5045035;28;43007;-78
2023/07/27 00:29:54;;;;;;;;;;;24.90;50.10;;;;;;5044676;28;42996;-79
2023/07/27 00:32:19;;;;;;;;;;;24.90;50.20;;;;;;5045918;28;43153;-79
2023/07/27 00:34:45;;;;;;;;;;;25.00;50.60;;;;;;5046036;28;42926;-79
2023/07/27 00:37:12;;;;;;;;;;;25.00;50.00;;;;;;5045919;28;43048;-80
2023/07/27 00:39:38;;;;;;;;;;;24.90;50.00;;;;;;5045541;28;42942;-78
2023/07/27 00:42:03;;;;;;;;;;;24.90;50.70;;;;;;5046264;28;43330;-79
2023/07/27 00:44:29;;;;;;;;;;;24.90;50.70;;;;;;5045327;28;43080;-78
2023/07/27 00:46:54;;;;;;;;;;;25.10;51.20;;;;;;5045673;28;42946;-78
2023/07/27 00:49:20;;;;;;;;;;;24.90;50.90;;;;;;5045163;28;42907;-78
2023/07/27 00:51:46;;;;;;;;;;;24.90;50.90;;;;;;5044399;28;43093;-79
2023/07/27 00:54:11;;;;;;;;;;;24.90;50.80;;;;;;5045114;28;43049;-78
2023/07/27 00:56:38;;;;;;;;;;;24.90;51.00;;;;;;5045082;28;42975;-78
2023/07/27 00:59:04;;;;;;;;;;;24.90;50.90;;;;;;5045148;28;43572;-78
2023/07/27 01:01:29;;;;;;;;;;;24.80;51.00;;;;;;5045836;28;42775;-80
2023/07/27 01:03:55;;;;;;;;;;;24.80;51.10;;;;;;5045518;28;43628;-79
2023/07/27 01:06:21;;;;;;;;;;;24.80;50.90;;;;;;5045915;28;42958;-80
2023/07/27 01:08:47;;;;;;;;;;;24.80;50.90;;;;;;5045891;28;43677;-80
2023/07/27 01:11:22;;;;;;;;;;;24.80;51.10;;;;;;5045286;28;42766;-79
2023/07/27 01:13:48;;;;;;;;;;;24.70;50.90;;;;;;5045271;28;43720;-79
2023/07/27 01:16:18;;;;;;;;;;;24.70;51.00;;;;;;5045211;28;43100;-79
2023/07/27 01:18:55;;;;;;;;;;;24.70;51.00;;;;;;5045668;28;43838;-78
2023/07/27 01:21:24;;;;;;;;;;;24.70;50.90;;;;;;5027685;28;43529;-78
2023/07/27 01:24:13;;;;;;;;;;;24.80;50.80;;;;;;5043469;28;44393;-79
2023/07/27 01:27:01;;;;;;;;;;;24.80;50.80;;;;;;5033369;28;42946;-79
2023/07/27 01:29:26;;;;;;;;;;;24.80;50.60;;;;;;5042418;28;44407;-79
2023/07/27 01:31:52;;;;;;;;;;;24.80;50.70;;;;;;5044557;28;42860;-79
2023/07/27 01:34:26;;;;;;;;;;;24.70;50.60;;;;;;5043484;28;42959;-78
2023/07/27 01:36:57;;;;;;;;;;;24.80;50.60;;;;;;5044058;28;42928;-78
2023/07/27 01:39:23;;;;;;;;;;;24.70;51.30;;;;;;5043831;28;43748;-78
2023/07/27 01:41:50;;;;;;;;;;;24.70;50.80;;;;;;5043723;28;43293;-79
2023/07/27 01:44:16;;;;;;;;;;;24.70;50.90;;;;;;5043723;28;43299;-79
2023/07/27 01:46:42;;;;;;;;;;;24.60;50.30;;;;;;5042158;28;42995;-78
2023/07/27 01:49:09;;;;;;;;;;;24.60;50.80;;;;;;5044376;28;43005;-78
2023/07/27 01:51:36;;;;;;;;;;;24.60;50.90;;;;;;5042766;28;43097;-79
2023/07/27 01:54:02;;;;;;;;;;;24.60;51.00;;;;;;5043935;28;43620;-79
2023/07/27 01:56:28;;;;;;;;;;;24.60;51.10;;;;;;5044067;28;43018;-79
2023/07/27 01:58:57;;;;;;;;;;;24.60;50.90;;;;;;5041523;28;64584;-79
2023/07/27 02:01:22;;;;;;;;;;;24.60;50.80;;;;;;5043655;28;42994;-79
2023/07/27 02:03:48;;;;;;;;;;;24.60;50.90;;;;;;5043328;28;43901;-79
2023/07/27 02:06:14;;;;;;;;;;;24.60;51.00;;;;;;5041737;28;43203;-79
2023/07/27 02:08:39;;;;;;;;;;;24.60;51.00;;;;;;5041273;28;42943;-78
2023/07/27 02:11:06;;;;;;;;;;;24.60;50.40;;;;;;5042392;28;43059;-79
2023/07/27 02:13:41;;;;;;;;;;;24.60;50.80;;;;;;5042871;28;44884;-79
2023/07/27 02:16:25;;;;;;;;;;;24.60;50.70;;;;;;5043273;28;43056;-79
2023/07/27 02:18:53;;;;;;;;;;;24.60;50.70;;;;;;5043355;28;43081;-79
2023/07/27 02:21:20;;;;;;;;;;;24.60;50.60;;;;;;5044201;28;42989;-79
2023/07/27 02:23:45;;;;;;;;;;;24.60;50.60;;;;;;5043080;28;43043;-79
2023/07/27 02:26:11;;;;;;;;;;;24.60;50.60;;;;;;5044467;28;42786;-80
2023/07/27 02:28:36;;;;;;;;;;;24.60;50.90;;;;;;5043788;28;43331;-79
2023/07/27 02:31:02;;;;;;;;;;;24.60;50.80;;;;;;5043150;28;42997;-78
2023/07/27 02:33:27;;;;;;;;;;;24.60;50.60;;;;;;5044075;28;43027;-79
2023/07/27 02:35:54;;;;;;;;;;;24.60;50.40;;;;;;5043259;28;43020;-79
2023/07/27 02:38:20;;;;;;;;;;;24.70;50.30;;;;;;5038677;28;45134;-80
2023/07/27 02:40:46;;;;;;;;;;;24.80;50.10;;;;;;5043911;28;43361;-80
2023/07/27 02:43:11;;;;;;;;;;;24.90;49.20;;;;;;5041137;28;43545;-79
2023/07/27 02:45:37;;;;;;;;;;;24.90;49.60;;;;;;5041881;28;42996;-79
2023/07/27 02:48:02;;;;;;;;;;;24.50;49.70;;;;;;5043844;28;43086;-78
2023/07/27 02:50:28;;;;;;;;;;;24.80;49.90;;;;;;5042084;28;43219;-79
2023/07/27 02:52:53;;;;;;;;;;;24.70;49.80;;;;;;5044041;28;43549;-80
2023/07/27 02:55:19;;;;;;;;;;;24.60;50.00;;;;;;5043013;28;42922;-79
2023/07/27 02:57:45;;;;;;;;;;;24.50;49.60;;;;;;5041752;28;43049;-78
2023/07/27 03:00:11;;;;;;;;;;;24.60;49.50;;;;;;5043132;28;43125;-78
2023/07/27 03:02:36;;;;;;;;;;;24.70;50.00;;;;;;5042919;28;43785;-79
2023/07/27 03:05:04;;;;;;;;;;;24.60;49.30;;;;;;5041399;28;42884;-79
2023/07/27 03:07:30;;;;;;;;;;;24.70;49.70;;;;;;5042761;28;43226;-78
2023/07/27 03:09:55;;;;;;;;;;;24.70;49.10;;;;;;5043118;28;43035;-79
2023/07/27 03:12:21;;;;;;;;;;;24.70;49.40;;;;;;5045557;28;42972;-79
2023/07/27 03:14:46;;;;;;;;;;;24.70;48.90;;;;;;5046605;28;42920;-78
2023/07/27 03:17:12;;;;;;;;;;;24.70;49.50;;;;;;5045984;28;43360;-79
2023/07/27 03:19:38;;;;;;;;;;;24.60;49.60;;;;;;5046976;28;43056;-79
2023/07/27 03:22:04;;;;;;;;;;;24.50;49.60;;;;;;5044452;28;43558;-78
2023/07/27 03:24:30;;;;;;;;;;;24.50;49.70;;;;;;5044749;28;43038;-79
2023/07/27 03:26:55;;;;;;;;;;;24.40;49.40;;;;;;5045043;28;43786;-79
2023/07/27 03:29:21;;;;;;;;;;;24.30;49.90;;;;;;5046544;28;43038;-78
2023/07/27 03:31:46;;;;;;;;;;;24.40;50.00;;;;;;5046998;28;42807;-79
2023/07/27 03:34:12;;;;;;;;;;;24.40;49.80;;;;;;5046146;28;42942;-79
2023/07/27 03:36:37;;;;;;;;;;;24.40;49.10;;;;;;5043929;28;44552;-79
2023/07/27 03:39:03;;;;;;;;;;;24.40;49.50;;;;;;5044835;28;43000;-80
2023/07/27 03:41:29;;;;;;;;;;;24.40;48.70;;;;;;5041895;28;45375;-83
2023/07/27 03:43:54;;;;;;;;;;;24.40;48.80;;;;;;5046111;28;43388;-88
2023/07/27 03:46:20;;;;;;;;;;;24.60;50.30;;;;;;5046493;28;42944;-82
2023/07/27 03:48:46;;;;;;;;;;;24.60;49.40;;;;;;5046825;28;42972;-84
2023/07/27 03:51:11;;;;;;;;;;;24.80;48.30;;;;;;5040807;28;43250;-83
2023/07/27 03:53:38;;;;;;;;;;;24.80;47.40;;;;;;5046465;28;43096;-84
2023/07/27 03:56:04;;;;;;;;;;;24.90;48.10;;;;;;5044172;28;44012;-85
2023/07/27 03:58:30;;;;;;;;;;;24.80;46.80;;;;;;5044667;28;43049;-83
2023/07/27 04:00:55;;;;;;;;;;;24.80;48.30;;;;;;5044167;28;43406;-83
2023/07/27 04:03:21;;;;;;;;;;;24.80;46.60;;;;;;5043026;28;42932;-84
2023/07/27 04:05:46;;;;;;;;;;;24.80;46.50;;;;;;5045789;28;43460;-84
2023/07/27 04:08:17;;;;;;;;;;;24.70;47.70;;;;;;5045895;28;42857;-83
2023/07/27 04:10:42;;;;;;;;;;;24.80;47.20;;;;;;5042427;28;43739;-84
2023/07/27 04:13:08;;;;;;;;;;;24.70;47.80;;;;;;5037381;28;43235;-85
2023/07/27 04:15:34;;;;;;;;;;;24.90;48.60;;;;;;5044310;28;43097;-83
2023/07/27 04:21:02;;;;;;;;;;;25.00;47.40;;;;;;5042570;28;43375;-89
2023/07/27 04:23:28;;;;;;;;;;;24.90;46.60;;;;;;5039543;28;43551;-84
2023/07/27 04:25:56;;;;;;;;;;;25.00;47.60;;;;;;5044962;28;42963;-94
2023/07/27 04:28:21;;;;;;;;;;;24.90;46.40;;;;;;5044764;28;43156;-85
2023/07/27 04:30:47;;;;;;;;;;;24.90;46.30;;;;;;5040555;28;43927;-84
2023/07/27 04:33:12;;;;;;;;;;;24.90;46.00;;;;;;5031266;28;42916;-84
2023/07/27 04:35:41;;;;;;;;;;;24.80;46.70;;;;;;5037258;28;44547;-85
2023/07/27 04:38:07;;;;;;;;;;;24.80;46.20;;;;;;5046069;28;43002;-85
2023/07/27 04:40:32;;;;;;;;;;;24.70;46.20;;;;;;5045908;28;43105;-85
2023/07/27 04:42:58;;;;;;;;;;;24.70;46.10;;;;;;5044894;28;43096;-81
2023/07/27 04:45:24;;;;;;;;;;;24.70;46.40;;;;;;5043119;28;43533;-83
2023/07/27 04:47:50;;;;;;;;;;;24.70;47.00;;;;;;5046087;28;43032;-83
2023/07/27 04:50:16;;;;;;;;;;;24.70;47.00;;;;;;5043366;28;43821;-84
2023/07/27 04:52:41;;;;;;;;;;;24.60;46.70;;;;;;5045308;28;42924;-83
2023/07/27 04:55:07;;;;;;;;;;;24.60;45.60;;;;;;5041997;28;43801;-83
2023/07/27 04:57:32;;;;;;;;;;;24.60;46.00;;;;;;5035980;28;42911;-82
2023/07/27 04:59:58;;;;;;;;;;;24.70;46.80;;;;;;5043377;28;43979;-83
2023/07/27 05:02:24;;;;;;;;;;;24.50;45.40;;;;;;5041708;28;42990;-82
2023/07/27 05:04:50;;;;;;;;;;;24.50;45.30;;;;;;5042898;28;43945;-83
2023/07/27 05:07:16;;;;;;;;;;;24.40;45.90;;;;;;5045158;28;43057;-82
2023/07/27 05:09:41;;;;;;;;;;;24.40;49.40;;;;;;5045887;28;43051;-83
2023/07/27 05:12:07;;;;;;;;;;;24.40;44.80;;;;;;5045553;28;43835;-82
2023/07/27 05:14:32;;;;;;;;;;;24.40;45.00;;;;;;5045480;28;42905;-83
2023/07/27 05:16:58;;;;;;;;;;;24.40;45.10;;;;;;5045010;28;43109;-83
2023/07/27 05:19:23;;;;;;;;;;;24.50;46.00;;;;;;5043425;28;43613;-82
2023/07/27 05:21:49;;;;;;;;;;;24.50;45.70;;;;;;5045602;28;43821;-82
2023/07/27 05:24:14;;;;;;;;;;;25.80;48.30;;;;;;5045518;28;43009;-83
2023/07/27 05:26:40;;;;;;;;;;;24.60;46.80;;;;;;5045157;28;43116;-83
2023/07/27 05:29:05;;;;;;;;;;;24.60;47.70;;;;;;5044788;28;43007;-83
2023/07/27 05:31:31;;;;;;;;;;;24.70;48.00;;;;;;5044859;28;42954;-82
2023/07/27 05:33:56;;;;;;;;;;;24.40;46.60;;;;;;5044558;28;43838;-82
2023/07/27 05:36:22;;;;;;;;;;;24.50;46.40;;;;;;5044619;28;42975;-83
2023/07/27 05:38:48;;;;;;;;;;;24.40;46.10;;;;;;5044500;28;42875;-83
2023/07/27 05:41:13;;;;;;;;;;;24.50;47.00;;;;;;5044866;28;42988;-83
2023/07/27 05:43:39;;;;;;;;;;;24.40;45.70;;;;;;5039047;28;43389;-83
2023/07/27 05:46:04;;;;;;;;;;;24.50;45.60;;;;;;5042861;28;43017;-83
2023/07/27 05:48:30;;;;;;;;;;;24.60;45.30;;;;;;5044513;28;43918;-82
2023/07/27 05:50:56;;;;;;;;;;;24.60;46.90;;;;;;5041476;28;43010;-83
2023/07/27 05:53:21;;;;;;;;;;;24.70;45.50;;;;;;5042690;28;44297;-83
2023/07/27 05:55:47;;;;;;;;;;;24.70;45.40;;;;;;5037102;28;42998;-83
2023/07/27 05:58:12;;;;;;;;;;;24.70;45.20;;;;;;5044412;28;43727;-82
2023/07/27 06:00:38;;;;;;;;;;;24.70;45.30;;;;;;5044793;28;42860;-83
2023/07/27 06:03:03;;;;;;;;;;;24.70;46.30;;;;;;5044859;28;42954;-83
2023/07/27 06:05:29;;;;;;;;;;;24.80;46.50;;;;;;5037718;28;42946;-83
2023/07/27 06:07:54;;;;;;;;;;;24.90;46.50;;;;;;5035637;28;42943;-83
2023/07/27 06:10:20;;;;;;;;;;;24.90;48.90;;;;;;5042417;28;42983;-83
2023/07/27 06:12:46;;;;;;;;;;;24.90;45.90;;;;;;5044958;28;43399;-82
2023/07/27 06:15:11;;;;;;;;;;;25.00;46.40;;;;;;5044764;28;42883;-83
2023/07/27 06:17:36;;;;;;;;;;;25.00;45.80;;;;;;5044006;28;43960;-84
2023/07/27 06:20:02;;;;;;;;;;;25.00;46.40;;;;;;5045014;28;42893;-82
2023/07/27 06:22:28;;;;;;;;;;;25.00;46.90;;;;;;5043318;28;45136;-83
2023/07/27 06:24:53;;;;;;;;;;;25.00;46.40;;;;;;5044272;28;43057;-83
2023/07/27 06:27:19;;;;;;;;;;;25.00;46.90;;;;;;5044342;28;42903;-83
2023/07/27 06:29:44;;;;;;;;;;;25.00;47.30;;;;;;5044661;28;42831;-83
2023/07/27 06:32:10;;;;;;;;;;;25.00;46.60;;;;;;5044998;28;42876;-84
2023/07/27 06:34:35;;;;;;;;;;;24.90;46.70;;;;;;5043570;28;43050;-84
2023/07/27 06:37:01;;;;;;;;;;;24.90;47.30;;;;;;5039682;28;44661;-84
2023/07/27 06:39:27;;;;;;;;;;;24.90;47.30;;;;;;5037687;28;43005;-81
2023/07/27 06:41:52;;;;;;;;;;;24.80;47.40;;;;;;5043691;28;43016;-86
2023/07/27 06:44:18;;;;;;;;;;;24.70;47.60;;;;;;5037781;28;43108;-85
2023/07/27 06:46:44;;;;;;;;;;;24.70;47.20;;;;;;5041652;28;44290;-84
2023/07/27 06:49:10;;;;;;;;;;;24.70;47.30;;;;;;5044289;28;42935;-86
2023/07/27 06:51:36;;;;;;;;;;;24.70;47.40;;;;;;5041771;28;43573;-83
2023/07/27 06:54:01;;;;;;;;;;;24.70;48.00;;;;;;5038767;28;43009;-85
2023/07/27 06:56:27;;;;;;;;;;;24.80;48.10;;;;;;5039090;28;42903;-80
2023/07/27 06:58:52;;;;;;;;;;;24.80;48.40;;;;;;5036533;28;43075;-85
2023/07/27 07:01:18;;;;;;;;;;;24.80;48.50;;;;;;5037825;28;43448;-84
2023/07/27 07:03:43;;;;;;;;;;;24.80;48.50;;;;;;5044354;28;43150;-85
2023/07/27 07:06:09;;;;;;;;;;;24.80;48.60;;;;;;5043629;28;43438;-85
2023/07/27 07:08:34;;;;;;;;;;;24.80;48.20;;;;;;5043703;28;42922;-85
2023/07/27 07:11:00;;;;;;;;;;;24.90;48.10;;;;;;5044066;28;43514;-85
2023/07/27 07:13:26;;;;;;;;;;;24.90;48.10;;;;;;5043766;28;43065;-85
2023/07/27 07:15:51;;;;;;;;;;;24.90;48.00;;;;;;5044074;28;42876;-85
2023/07/27 07:18:17;;;;;;;;;;;24.90;47.90;;;;;;5041960;28;43071;-85
2023/07/27 07:20:42;;;;;;;;;;;24.90;47.90;;;;;;5029386;28;43530;-85
2023/07/27 07:23:08;;;;;;;;;;;24.90;47.80;;;;;;5043363;28;42907;-84
2023/07/27 07:25:33;;;;;;;;;;;25.00;47.50;;;;;;5035903;28;42957;-85
2023/07/27 07:27:59;;;;;;;;;;;25.00;47.20;;;;;;5043167;28;43177;-85
2023/07/27 07:30:24;;;;;;;;;;;25.00;47.40;;;;;;5042563;28;43413;-84
2023/07/27 07:32:50;;;;;;;;;;;25.00;47.20;;;;;;5041501;28;42974;-85
2023/07/27 07:35:16;;;;;;;;;;;25.00;46.60;;;;;;5041900;28;43369;-85
2023/07/27 07:37:41;;;;;;;;;;;25.10;45.90;;;;;;5042439;28;42887;-85
2023/07/27 07:40:07;;;;;;;;;;;25.10;45.10;;;;;;5043113;28;43909;-85
2023/07/27 07:42:33;;;;;;;;;;;25.00;45.20;;;;;;5039123;28;43061;-85
2023/07/27 07:44:58;;;;;;;;;;;25.10;45.20;;;;;;5039684;28;43150;-85
2023/07/27 07:47:24;;;;;;;;;;;25.10;45.00;;;;;;5042825;28;42986;-86
2023/07/27 07:49:49;;;;;;;;;;;25.10;44.70;;;;;;5042886;28;44033;-86
2023/07/27 07:52:15;;;;;;;;;;;25.10;44.40;;;;;;5042537;28;43005;-86
2023/07/27 07:54:40;;;;;;;;;;;25.10;43.40;;;;;;5040261;28;43051;-84
2023/07/27 07:57:06;;;;;;;;;;;25.10;44.10;;;;;;5030549;28;43050;-84
2023/07/27 07:59:31;;;;;;;;;;;25.20;43.90;;;;;;5042694;28;42982;-85
2023/07/27 08:01:57;;;;;;;;;;;25.20;44.30;;;;;;5044415;28;42999;-85
2023/07/27 08:04:22;;;;;;;;;;;25.20;44.40;;;;;;5044397;28;43681;-85
2023/07/27 08:06:48;;;;;;;;;;;25.20;43.10;;;;;;5046005;28;42940;-84
2023/07/27 08:09:14;;;;;;;;;;;25.20;42.60;;;;;;5046072;28;43908;-85
2023/07/27 08:11:41;;;;;;;;;;;25.20;45.10;;;;;;5043869;28;42985;-86
2023/07/27 08:14:07;;;;;;;;;;;25.20;42.90;;;;;;5039404;28;43664;-84
2023/07/27 08:16:33;;;;;;;;;;;25.20;42.90;;;;;;5042430;28;42994;-85
2023/07/27 08:18:58;;;;;;;;;;;25.30;43.60;;;;;;5045665;28;42948;-85
2023/07/27 08:21:24;;;;;;;;;;;25.30;43.90;;;;;;5045282;28;42946;-86
2023/07/27 08:23:50;;;;;;;;;;;25.30;43.70;;;;;;5045947;28;43657;-86
2023/07/27 08:26:16;;;;;;;;;;;25.30;42.70;;;;;;5045335;28;42983;-86
2023/07/27 08:28:41;;;;;;;;;;;25.20;42.30;;;;;;5045489;28;43030;-85
2023/07/27 08:31:07;;;;;;;;;;;25.20;42.80;;;;;;5046314;28;43450;-83
2023/07/27 08:33:33;;;;;;;;;;;25.20;43.10;;;;;;5044849;28;44420;-84
2023/07/27 08:36:02;;;;;;;;;;;25.20;42.50;;;;;;5046109;28;42979;-84
2023/07/27 08:38:27;;;;;;;;;;;25.20;42.50;;;;;;5045347;28;43935;-83
2023/07/27 08:40:57;;;;;;;;;;;25.30;42.50;;;;;;5042047;28;43022;-88
2023/07/27 08:43:23;;;;;;;;;;;25.30;42.60;;;;;;5039077;28;43283;-84
2023/07/27 08:45:48;;;;;;;;;;;25.30;41.20;;;;;;5039385;28;43011;-83
2023/07/27 08:48:14;;;;;;;;;;;25.30;42.20;;;;;;5040621;28;43511;-83
2023/07/27 08:50:41;;;;;;;;;;;25.40;42.50;;;;;;5045771;28;42958;-85
2023/07/27 08:53:06;;;;;;;;;;;25.30;40.40;;;;;;5042230;28;43027;-84
2023/07/27 08:55:34;;;;;;;;;;;25.40;41.60;;;;;;5045854;28;42961;-90
2023/07/27 08:58:11;;;;;;;;;;;25.40;40.70;;;;;;5043483;28;44448;-89
2023/07/27 09:00:43;;;;;;;;;;;25.40;41.30;;;;;;5043609;28;43066;-86
2023/07/27 09:03:09;;;;;;;;;;;26.70;42.70;;;;;;5038354;28;44416;-85
2023/07/27 09:05:39;;;;;;;;;;;25.40;42.20;;;;;;5044488;28;43278;-88
2023/07/27 09:08:05;;;;;;;;;;;25.40;41.90;;;;;;5042852;28;45842;-88
2023/07/27 09:10:30;;;;;;;;;;;25.40;42.20;;;;;;5045339;28;43163;-87
2023/07/27 09:12:59;;;;;;;;;;;25.40;42.60;;;;;;5045601;28;42929;-87
2023/07/27 09:15:26;;;;;;;;;;;25.40;42.50;;;;;;5044622;28;43018;-88
2023/07/27 09:17:52;;;;;;;;;;;25.40;42.90;;;;;;5044728;28;42932;-88
2023/07/27 09:20:18;;;;;;;;;;;25.50;43.10;;;;;;5045648;28;42984;-87
2023/07/27 09:22:45;;;;;;;;;;;25.50;43.80;;;;;;5045789;28;43595;-87
2023/07/27 09:25:10;;;;;;;;;;;25.50;43.20;;;;;;5045239;28;43109;-87
2023/07/27 09:27:42;;;;;;;;;;;25.60;43.10;;;;;;5044993;28;43664;-87
2023/07/27 09:30:08;;;;;;;;;;;25.60;42.80;;;;;;5044634;28;43042;-87
2023/07/27 09:32:34;;;;;;;;;;;25.60;43.10;;;;;;5044248;28;43050;-86
2023/07/27 09:35:00;;;;;;;;;;;25.60;41.60;;;;;;5044874;28;43060;-88
2023/07/27 09:37:25;;;;;;;;;;;25.60;42.00;;;;;;5045042;28;42959;-87
2023/07/27 09:40:04;;;;;;;;;;;25.50;42.00;;;;;;5044913;28;43017;-86
2023/07/27 09:42:32;;;;;;;;;;;25.50;41.90;;;;;;5045195;28;43745;-86
2023/07/27 09:44:58;;;;;;;;;;;25.60;41.30;;;;;;5044713;28;42967;-85
2023/07/27 09:47:29;;;;;;;;;;;25.50;40.60;;;;;;5044220;28;43517;-86
2023/07/27 09:49:57;;;;;;;;;;;25.50;40.90;;;;;;5042371;28;43616;-87
2023/07/27 09:52:23;;;;;;;;;;;25.50;41.20;;;;;;5042719;28;42975;-86
2023/07/27 09:54:49;;;;;;;;;;;25.50;41.60;;;;;;5044385;28;42891;-85
2023/07/27 09:57:15;;;;;;;;;;;25.50;41.60;;;;;;5044020;28;43001;-86
2023/07/27 09:59:41;;;;;;;;;;;25.50;42.10;;;;;;5044684;28;43287;-86
2023/07/27 10:02:07;;;;;;;;;;;25.60;42.10;;;;;;5043948;28;43628;-90
2023/07/27 10:04:32;;;;;;;;;;;25.50;42.20;;;;;;5044767;28;43038;-89
2023/07/27 10:06:58;;;;;;;;;;;25.60;42.50;;;;;;5044354;28;43561;-88
2023/07/27 10:09:23;;;;;;;;;;;25.60;42.60;;;;;;5043506;28;42952;-87
2023/07/27 10:11:56;;;;;;;;;;;25.60;43.10;;;;;;5043737;28;44097;-88
2023/07/27 10:14:23;;;;;;;;;;;25.50;42.50;;;;;;5043414;28;43067;-87
2023/07/27 10:17:02;;;;;;;;;;;25.60;42.30;;;;;;5052129;22;44267;-88
2023/07/27 10:19:44;;;;;;;;;;;25.60;42.70;;;;;;5044393;28;42819;-87
2023/07/27 10:22:14;;;;;;;;;;;25.60;42.90;;;;;;5042611;28;43474;-87
2023/07/27 10:24:50;;;;;;;;;;;25.70;42.80;;;;;;5045126;28;42890;-87
2023/07/27 10:27:16;;;;;;;;;;;25.60;42.70;;;;;;5044253;28;43777;-87
2023/07/27 10:29:46;;;;;;;;;;;25.70;42.90;;;;;;5044410;28;42994;-86
2023/07/27 10:32:12;;;;;;;;;;;25.70;42.70;;;;;;5044421;28;43017;-87
2023/07/27 10:34:49;;;;;;;;;;;25.70;42.60;;;;;;5044359;28;42963;-87
2023/07/27 10:37:20;;;;;;;;;;;25.70;42.10;;;;;;5043719;28;43414;-88
2023/07/27 10:39:54;;;;;;;;;;;27.30;43.40;;;;;;5042622;28;43047;-87
2023/07/27 10:42:44;;;;;;;;;;;25.60;42.50;;;;;;5042564;28;43955;-86
2023/07/27 10:45:22;;;;;;;;;;;25.70;42.40;;;;;;5031572;28;42958;-87
2023/07/27 10:47:55;;;;;;;;;;;25.60;41.10;;;;;;5042124;28;45566;-88
2023/07/27 10:50:21;;;;;;;;;;;25.50;41.50;;;;;;5044098;28;42943;-86
2023/07/27 10:52:51;;;;;;;;;;;25.60;41.90;;;;;;5044233;28;43560;-87
2023/07/27 10:55:17;;;;;;;;;;;26.10;42.30;;;;;;5042547;28;43060;-87
2023/07/27 10:57:42;;;;;;;;;;;25.80;41.00;;;;;;5043934;28;43826;-87
2023/07/27 11:00:09;;;;;;;;;;;25.80;41.80;;;;;;5043960;28;42900;-86
2023/07/27 11:02:36;;;;;;;;;;;25.70;41.10;;;;;;5041533;28;44563;-87
2023/07/27 11:05:06;;;;;;;;;;;25.90;41.40;;;;;;5044194;28;43047;-87
2023/07/27 11:07:37;;;;;;;;;;;26.00;40.80;;;;;;5042454;28;42991;-86
2023/07/27 11:10:12;;;;;;;;;;;26.00;41.20;;;;;;5042416;28;43148;-87
2023/07/27 11:12:47;;;;;;;;;;;25.80;42.10;;;;;;5029200;28;44588;-87
2023/07/27 11:15:16;;;;;;;;;;;25.90;42.00;;;;;;5043161;28;43052;-86
2023/07/27 11:17:42;;;;;;;;;;;25.90;42.10;;;;;;5042506;28;42987;-88
2023/07/27 11:20:08;;;;;;;;;;;25.80;41.60;;;;;;5041909;28;43098;-87
2023/07/27 11:22:35;;;;;;;;;;;25.90;42.40;;;;;;5043964;28;43925;-89
2023/07/27 11:25:04;;;;;;;;;;;25.80;41.30;;;;;;5043904;28;43097;-86
2023/07/27 11:27:29;;;;;;;;;;;25.80;41.80;;;;;;5043755;28;42934;-86
2023/07/27 11:29:59;;;;;;;;;;;25.80;41.90;;;;;;5043351;28;43078;-89
2023/07/27 11:32:57;;;;;;;;;;;25.80;42.10;;;;;;5043753;28;43452;-88
2023/07/27 11:35:23;;;;;;;;;;;25.80;42.00;;;;;;4990367;28;42982;-86
2023/07/27 11:37:48;;;;;;;;;;;25.80;41.80;;;;;;5004895;28;44053;-86
2023/07/27 11:40:26;;;;;;;;;;;25.80;43.50;;;;;;5004056;28;43079;-87
2023/07/27 11:42:51;;;;;;;;;;;23.30;41.20;;;;;;5004362;28;43575;-85
2023/07/27 11:45:17;;;;;;;;;;;25.80;42.30;;;;;;5004277;28;43079;-86
2023/07/27 11:48:03;;;;;;;;;;;25.80;42.40;;;;;;5002859;28;43143;-86
2023/07/27 11:50:37;;;;;;;;;;;26.20;43.20;;;;;;5004298;28;43049;-86
2023/07/27 11:53:07;;;;;;;;;;;26.80;43.20;;;;;;4987409;28;45379;-85
2023/07/27 11:55:38;;;;;;;;;;;25.80;43.00;;;;;;4988601;28;43003;-86
2023/07/27 11:58:05;;;;;;;;;;;24.90;42.30;;;;;;5003855;28;44020;-85
2023/07/27 12:00:33;;;;;;;;;;;25.80;43.20;;;;;;5004786;28;43207;-86
2023/07/27 12:02:59;;;;;;;;;;;26.60;43.50;;;;;;4985728;28;45477;-87
2023/07/27 12:05:27;;;;;;;;;;;25.80;42.60;;;;;;4982310;28;43046;-88
2023/07/27 12:07:54;;;;;;;;;;;26.80;43.70;;;;;;4983676;28;45196;-87
2023/07/27 12:10:23;;;;;;;;;;;26.00;43.20;;;;;;5004140;28;43036;-87
2023/07/27 12:13:05;;;;;;;;;;;25.80;42.40;;;;;;5018427;28;44226;-87
2023/07/27 12:15:35;;;;;;;;;;;25.90;43.00;;;;;;5043146;28;42985;-87
2023/07/27 12:18:04;;;;;;;;;;;25.70;43.00;;;;;;5045214;28;43960;-87
2023/07/27 12:20:33;;;;;;;;;;;25.80;42.90;;;;;;5038276;28;43011;-86
2023/07/27 12:22:59;;;;;;;;;;;25.80;42.40;;;;;;5043940;28;44687;-87
2023/07/27 12:25:25;;;;;;;;;;;25.80;42.50;;;;;;5036039;28;43014;-89
2023/07/27 12:27:52;;;;;;;;;;;25.70;43.40;;;;;;5043851;28;43025;-88
2023/07/27 12:30:17;;;;;;;;;;;25.80;43.90;;;;;;5040509;28;43049;-84
2023/07/27 12:32:43;;;;;;;;;;;25.80;43.20;;;;;;5039914;28;43674;-86
2023/07/27 12:35:10;;;;;;;;;;;25.90;44.00;;;;;;5049311;28;43249;-81
2023/07/27 12:37:35;;;;;;;;;;;25.80;43.30;;;;;;5052960;28;42972;-83
2023/07/27 12:40:03;;;;;;;;;;;25.80;43.50;;;;;;5042533;28;43071;-92
2023/07/27 12:42:28;;;;;;;;;;;25.80;42.60;;;;;;5057445;28;43997;-82
2023/07/27 12:44:55;;;;;;;;;;;26.00;44.40;;;;;;5046294;28;42954;-82
2023/07/27 12:47:21;;;;;;;;;;;26.10;44.60;;;;;;5055358;28;42997;-83
2023/07/27 12:49:46;;;;;;;;;;;26.20;43.90;;;;;;5036524;28;42979;-82
2023/07/27 12:52:12;;;;;;;;;;;25.80;42.80;;;;;;5042725;28;43378;-81
2023/07/27 12:54:37;;;;;;;;;;;25.90;43.00;;;;;;5042086;28;43010;-84
2023/07/27 12:57:03;;;;;;;;;;;25.80;43.10;;;;;;5045444;28;43512;-85
2023/07/27 12:59:29;;;;;;;;;;;25.80;44.00;;;;;;5043692;28;42996;-81
2023/07/27 13:01:54;;;;;;;;;;;25.80;44.10;;;;;;5036090;28;44131;-91
2023/07/27 13:04:20;;;;;;;;;;;25.80;43.70;;;;;;5045942;28;42756;-83
2023/07/27 13:06:46;;;;;;;;;;;25.90;45.60;;;;;;5043596;28;43246;-85
2023/07/27 13:09:11;;;;;;;;;;;25.90;45.70;;;;;;5042486;28;43036;-83
2023/07/27 13:11:37;;;;;;;;;;;26.00;45.10;;;;;;5031307;28;43629;-83
2023/07/27 13:14:03;;;;;;;;;;;25.90;45.40;;;;;;5037799;28;43218;-81
2023/07/27 13:16:28;;;;;;;;;;;26.10;45.30;;;;;;5040133;28;43795;-88
2023/07/27 13:19:04;;;;;;;;;;;26.60;47.20;;;;;;5048347;28;43030;-88
2023/07/27 13:21:30;;;;;;;;;;;25.80;44.30;;;;;;5044170;28;44495;-86
2023/07/27 13:23:56;;;;;;;;;;;22.60;43.50;;;;;;5043838;28;42887;-88
2023/07/27 13:26:21;;;;;;;;;;;25.90;45.20;;;;;;5042307;28;43015;-88
2023/07/27 13:28:47;;;;;;;;;;;25.90;44.60;;;;;;5058098;28;43017;-88
2023/07/27 13:31:14;;;;;;;;;;;25.90;44.50;;;;;;5042856;28;45223;-89
2023/07/27 13:33:39;;;;;;;;;;;26.00;46.90;;;;;;5043397;28;42888;-88
2023/07/27 13:36:05;;;;;;;;;;;27.40;47.20;;;;;;5041596;28;43125;-88
2023/07/27 13:38:31;;;;;;;;;;;25.90;45.80;;;;;;5044804;28;42967;-87
2023/07/27 13:40:56;;;;;;;;;;;25.90;44.70;;;;;;5041514;28;44464;-88
2023/07/27 13:43:22;;;;;;;;;;;26.00;46.80;;;;;;5052309;28;43035;-88
2023/07/27 13:45:48;;;;;;;;;;;25.90;44.60;;;;;;5026968;28;43429;-86
2023/07/27 13:48:13;;;;;;;;;;;25.90;45.40;;;;;;5043919;28;42872;-84
2023/07/27 13:50:39;;;;;;;;;;;25.90;45.20;;;;;;5044762;28;42982;-84
2023/07/27 13:53:04;;;;;;;;;;;25.90;45.20;;;;;;5044907;28;42999;-82
2023/07/27 13:55:30;;;;;;;;;;;25.90;45.10;;;;;;5043183;28;43029;-83
2023/07/27 13:57:55;;;;;;;;;;;26.00;45.30;;;;;;5042162;28;42999;-83
2023/07/27 14:00:21;;;;;;;;;;;26.00;45.30;;;;;;5044664;28;42903;-83
2023/07/27 14:02:46;;;;;;;;;;;26.00;45.40;;;;;;5044458;28;43112;-83
2023/07/27 14:05:13;;;;;;;;;;;26.00;45.60;;;;;;5044483;28;42998;-83
2023/07/27 14:07:39;;;;;;;;;;;26.00;45.40;;;;;;5044578;28;42966;-83
2023/07/27 14:10:05;;;;;;;;;;;25.90;45.30;;;;;;5044298;28;43137;-85
2023/07/27 14:12:30;;;;;;;;;;;26.00;45.60;;;;;;5045040;28;42965;-83
2023/07/27 14:14:56;;;;;;;;;;;26.00;46.00;;;;;;5044311;28;42961;-83
2023/07/27 14:17:21;;;;;;;;;;;26.00;46.20;;;;;;5044350;28;42810;-82